createdAt,value
2023-02-19T00:01:15.960Z,5.47
2023-02-19T00:04:22.163Z,5.47
2023-02-19T00:07:24.893Z,5.55
2023-02-19T00:10:27.964Z,5.65
2023-02-19T00:13:31.553Z,5.55
2023-02-19T00:16:37.607Z,5.13
2023-02-19T00:19:40.360Z,5.85
2023-02-19T00:22:43.232Z,5.05
2023-02-19T00:25:46.083Z,5.32
2023-02-19T00:28:50.862Z,5.45
2023-02-19T00:31:53.778Z,5.17
2023-02-19T00:34:56.748Z,4.82
2023-02-19T00:38:01.743Z,5.50
2023-02-19T00:41:19.268Z,5.85
2023-02-19T00:44:22.088Z,5.70
2023-02-19T00:47:24.926Z,6.17
2023-02-19T00:50:27.764Z,5.40
2023-02-19T00:53:30.499Z,5.25
2023-02-19T00:56:34.133Z,5.43
2023-02-19T00:59:37.074Z,5.88
2023-02-19T01:02:39.880Z,5.23
2023-02-19T01:05:42.828Z,5.05
2023-02-19T01:08:46.219Z,5.10
2023-02-19T01:11:49.160Z,5.43
2023-02-19T01:14:52.039Z,5.18
2023-02-19T01:17:57.222Z,5.00
2023-02-19T01:21:09.723Z,5.13
2023-02-19T01:24:12.744Z,5.18
2023-02-19T01:27:15.456Z,6.00
2023-02-19T01:30:18.500Z,5.20
2023-02-19T01:33:21.269Z,5.47
2023-02-19T01:36:25.863Z,5.00
2023-02-19T01:39:28.840Z,5.55
2023-02-19T01:42:31.871Z,4.93
2023-02-19T01:45:38.412Z,4.68
2023-02-19T01:48:41.576Z,5.27
2023-02-19T01:51:53.435Z,4.90
2023-02-19T01:54:57.185Z,5.05
2023-02-19T01:58:01.638Z,5.50
2023-02-19T02:01:07.075Z,5.10
2023-02-19T02:04:12.201Z,5.17
2023-02-19T02:07:38.040Z,4.80
2023-02-19T02:10:42.074Z,5.03
2023-02-19T02:13:45.049Z,4.65
2023-02-19T02:16:54.874Z,5.22
2023-02-19T02:20:29.032Z,4.87
2023-02-19T02:23:50.018Z,4.60
2023-02-19T02:26:57.933Z,5.03
2023-02-19T02:30:21.966Z,4.60
2023-02-19T02:33:36.525Z,4.60
2023-02-19T02:36:45.717Z,5.03
2023-02-19T02:39:51.424Z,4.82
2023-02-19T02:42:58.602Z,5.20
2023-02-19T02:46:02.648Z,4.45
2023-02-19T02:49:17.556Z,4.78
2023-02-19T02:52:44.607Z,4.77
2023-02-19T02:55:50.416Z,4.47
2023-02-19T02:58:56.685Z,4.50
2023-02-19T03:02:11.681Z,4.28
2023-02-19T03:05:40.653Z,4.88
2023-02-19T03:08:56.665Z,4.37
2023-02-19T03:12:22.721Z,4.63
2023-02-19T03:15:52.219Z,4.35
2023-02-19T03:19:17.443Z,4.57
2023-02-19T03:22:25.750Z,4.63
2023-02-19T03:25:50.910Z,4.63
2023-02-19T03:29:22.169Z,4.22
2023-02-19T03:32:32.521Z,4.60
2023-02-19T03:35:46.672Z,4.57
2023-02-19T03:39:06.601Z,5.00
2023-02-19T03:42:58.965Z,4.70
2023-02-19T03:46:39.499Z,3.90
2023-02-19T03:49:57.023Z,4.28
2023-02-19T03:53:00.091Z,4.53
2023-02-19T03:56:28.861Z,4.00
2023-02-19T03:59:51.815Z,4.40
2023-02-19T04:03:05.987Z,4.45
2023-02-19T04:06:22.430Z,4.22
2023-02-19T04:09:36.276Z,3.97
2023-02-19T04:12:50.542Z,4.32
2023-02-19T04:15:57.912Z,4.33
2023-02-19T04:19:07.506Z,4.10
2023-02-19T04:22:12.453Z,4.25
2023-02-19T04:25:15.276Z,4.40
2023-02-19T04:28:18.666Z,4.00
2023-02-19T04:31:21.826Z,4.30
2023-02-19T04:34:24.925Z,4.38
2023-02-19T04:37:28.271Z,3.95
2023-02-19T04:40:36.944Z,4.28
2023-02-19T04:43:39.911Z,4.47
2023-02-19T04:46:43.220Z,4.00
2023-02-19T04:49:46.145Z,4.10
2023-02-19T04:52:49.239Z,3.67
2023-02-19T04:55:53.487Z,4.20
2023-02-19T04:58:56.736Z,4.00
2023-02-19T05:01:59.616Z,4.33
2023-02-19T05:05:02.397Z,3.97
2023-02-19T05:08:05.557Z,3.97
2023-02-19T05:11:11.116Z,3.78
2023-02-19T05:14:14.103Z,4.00
2023-02-19T05:17:16.997Z,3.50
2023-02-19T05:20:20.102Z,3.42
2023-02-19T05:23:22.864Z,4.15
2023-02-19T05:26:26.867Z,3.72
2023-02-19T05:29:31.935Z,3.92
2023-02-19T05:32:38.116Z,4.20
2023-02-19T05:35:46.244Z,3.80
2023-02-19T05:38:54.024Z,4.07
2023-02-19T05:41:57.035Z,4.07
2023-02-19T05:44:59.867Z,4.00
2023-02-19T05:48:03.269Z,3.80
2023-02-19T05:51:09.325Z,4.05
2023-02-19T05:54:12.286Z,4.32
2023-02-19T05:57:15.155Z,4.07
2023-02-19T06:00:19.932Z,3.88
2023-02-19T06:03:23.174Z,4.00
2023-02-19T06:06:27.305Z,3.75
2023-02-19T06:09:30.519Z,4.28
2023-02-19T06:12:33.509Z,4.55
2023-02-19T06:15:37.699Z,4.03
2023-02-19T06:18:41.415Z,3.87
2023-02-19T06:21:44.279Z,4.38
2023-02-19T06:24:47.745Z,3.85
2023-02-19T06:27:50.512Z,3.67
2023-02-19T06:30:53.658Z,4.40
2023-02-19T06:33:59.423Z,3.80
2023-02-19T06:37:02.176Z,3.85
2023-02-19T06:40:05.964Z,3.88
2023-02-19T06:43:09.805Z,3.80
2023-02-19T06:46:13.289Z,4.28
2023-02-19T06:49:16.438Z,3.80
2023-02-19T06:52:19.996Z,3.90
2023-02-19T06:55:22.801Z,4.40
2023-02-19T06:58:26.689Z,3.80
2023-02-19T07:01:31.166Z,4.45
2023-02-19T07:04:34.085Z,3.80
2023-02-19T07:07:37.265Z,4.60
2023-02-19T07:10:40.157Z,4.55
2023-02-19T07:13:42.971Z,4.40
2023-02-19T07:16:47.581Z,4.93
2023-02-19T07:19:50.376Z,4.20
2023-02-19T07:22:53.445Z,4.68
2023-02-19T07:25:56.270Z,4.60
2023-02-19T07:29:05.246Z,4.75
2023-02-19T07:32:08.346Z,4.95
2023-02-19T07:35:11.538Z,4.33
2023-02-19T07:38:18.660Z,5.00
2023-02-19T07:41:21.779Z,4.50
2023-02-19T07:44:24.726Z,4.78
2023-02-19T07:47:27.576Z,4.53
2023-02-19T07:50:30.465Z,4.83
2023-02-19T07:53:34.495Z,4.70
2023-02-19T07:56:37.491Z,4.80
2023-02-19T07:59:40.581Z,4.35
2023-02-19T08:06:22.090Z,4.77
2023-02-19T08:09:24.855Z,4.57
2023-02-19T08:12:46.784Z,4.60
2023-02-19T08:16:16.011Z,4.85
2023-02-19T08:19:22.128Z,4.90
2023-02-19T08:22:24.880Z,5.10
2023-02-19T08:25:28.068Z,4.47
2023-02-19T08:28:31.326Z,4.50
2023-02-19T08:31:35.279Z,4.70
2023-02-19T08:34:40.606Z,4.72
2023-02-19T08:37:46.587Z,4.80
2023-02-19T08:40:49.412Z,4.32
2023-02-19T08:43:52.505Z,4.38
2023-02-19T08:46:58.314Z,4.53
2023-02-19T08:50:01.152Z,4.88
2023-02-19T08:53:04.951Z,4.80
2023-02-19T08:56:09.646Z,4.80
2023-02-19T08:59:12.748Z,4.65
2023-02-19T09:02:15.816Z,4.57
2023-02-19T09:05:19.819Z,4.13
2023-02-19T09:08:22.587Z,4.13
2023-02-19T09:11:25.467Z,4.10
2023-02-19T09:14:32.339Z,3.95
2023-02-19T09:17:35.074Z,4.32
2023-02-19T09:20:38.038Z,4.97
2023-02-19T09:23:42.132Z,4.20
2023-02-19T09:26:44.956Z,4.38
2023-02-19T09:29:47.816Z,4.57
2023-02-19T09:32:50.866Z,3.85
2023-02-19T09:36:04.305Z,4.50
2023-02-19T09:39:10.622Z,3.93
2023-02-19T09:42:24.590Z,4.05
2023-02-19T09:45:27.750Z,4.50
2023-02-19T09:48:31.456Z,4.63
2023-02-19T09:51:41.101Z,4.10
2023-02-19T09:54:49.817Z,4.73
2023-02-19T09:57:53.876Z,4.22
2023-02-19T10:01:06.073Z,3.97
2023-02-19T10:04:11.222Z,3.95
2023-02-19T10:07:16.632Z,3.92
2023-02-19T10:10:37.246Z,4.33
2023-02-19T10:14:09.600Z,3.97
2023-02-19T10:17:22.627Z,4.25
2023-02-19T10:20:28.495Z,4.20
2023-02-19T10:23:32.214Z,4.20
2023-02-19T10:26:37.173Z,3.90
2023-02-19T10:29:43.998Z,4.07
2023-02-19T10:33:15.623Z,4.18
2023-02-19T10:36:41.661Z,3.95
2023-02-19T10:39:48.367Z,3.70
2023-02-19T10:42:56.716Z,4.03
2023-02-19T10:46:26.706Z,4.07
2023-02-19T10:49:39.889Z,3.85
2023-02-19T10:52:44.292Z,4.43
2023-02-19T10:55:47.664Z,4.03
2023-02-19T10:58:51.770Z,3.80
2023-02-19T11:02:04.110Z,3.88
2023-02-19T11:05:12.178Z,3.83
2023-02-19T11:08:25.113Z,3.97
2023-02-19T11:11:38.121Z,4.30
2023-02-19T11:14:45.688Z,3.73
2023-02-19T11:18:08.729Z,4.13
2023-02-19T11:21:33.362Z,4.35
2023-02-19T11:24:41.442Z,4.05
2023-02-19T11:28:16.872Z,4.35
2023-02-19T11:31:23.889Z,4.27
2023-02-19T11:34:30.318Z,4.05
2023-02-19T11:37:33.554Z,4.80
2023-02-19T11:40:57.971Z,6.40
2023-02-19T11:44:12.912Z,4.35
2023-02-19T11:47:37.519Z,4.30
2023-02-19T11:51:20.358Z,4.22
2023-02-19T11:54:48.829Z,4.18
2023-02-19T11:58:33.029Z,4.40
2023-02-19T12:02:06.746Z,3.70
2023-02-19T12:05:31.735Z,3.77
2023-02-19T12:08:40.671Z,3.75
2023-02-19T12:12:10.130Z,3.55
2023-02-19T12:15:47.933Z,3.85
2023-02-19T12:18:54.708Z,4.00
2023-02-19T12:22:20.810Z,4.00
2023-02-19T12:25:35.855Z,3.78
2023-02-19T12:28:42.277Z,4.68
2023-02-19T12:32:10.959Z,4.55
2023-02-19T12:36:04.948Z,4.50
2023-02-19T12:39:29.313Z,4.70
2023-02-19T12:43:18.560Z,4.20
2023-02-19T12:53:50.372Z,4.40
2023-02-19T12:57:02.393Z,4.00
2023-02-19T13:00:08.485Z,4.40
2023-02-19T13:03:25.178Z,4.10
2023-02-19T13:06:40.314Z,4.22
2023-02-19T13:10:20.638Z,4.40
2023-02-19T13:13:32.196Z,3.90
2023-02-19T13:16:40.861Z,4.10
2023-02-19T13:19:47.596Z,4.25
2023-02-19T13:23:36.279Z,4.20
2023-02-19T13:27:06.696Z,3.83
2023-02-19T13:30:45.015Z,3.93
2023-02-19T13:34:22.940Z,4.15
2023-02-19T13:37:27.046Z,4.00
2023-02-19T13:40:35.795Z,3.90
2023-02-19T13:43:42.428Z,4.30
2023-02-19T13:46:49.632Z,3.50
2023-02-19T13:50:07.079Z,4.30
2023-02-19T13:53:45.085Z,4.57
2023-02-19T13:56:49.900Z,3.78
2023-02-19T13:59:59.669Z,3.50
2023-02-19T14:03:27.504Z,4.10
2023-02-19T14:06:31.141Z,4.00
2023-02-19T14:09:42.127Z,4.03
2023-02-19T14:12:47.432Z,4.18
2023-02-19T14:15:51.963Z,4.10
2023-02-19T14:18:56.738Z,4.07
2023-02-19T14:22:03.286Z,4.03
2023-02-19T14:25:32.288Z,4.10
2023-02-19T14:28:46.194Z,4.68
2023-02-19T14:31:50.323Z,4.10
2023-02-19T14:34:53.881Z,3.63
2023-02-19T14:37:58.874Z,3.88
2023-02-19T14:41:03.815Z,4.32
2023-02-19T14:44:15.720Z,3.88
2023-02-19T14:47:23.355Z,4.05
2023-02-19T14:50:46.833Z,4.37
2023-02-19T14:53:53.397Z,4.10
2023-02-19T14:56:59.333Z,4.13
2023-02-19T15:00:27.569Z,4.07
2023-02-19T15:03:37.709Z,3.75
2023-02-19T15:06:41.980Z,3.70
2023-02-19T15:09:52.557Z,3.42
2023-02-19T15:13:09.038Z,4.40
2023-02-19T15:16:25.894Z,3.80
2023-02-19T15:19:35.620Z,4.10
2023-02-19T15:22:42.180Z,4.00
2023-02-19T15:25:48.697Z,3.78
2023-02-19T15:29:01.533Z,3.88
2023-02-19T15:32:23.390Z,4.05
2023-02-19T15:35:29.672Z,3.75
2023-02-19T15:38:34.222Z,3.87
2023-02-19T15:41:39.032Z,3.58
2023-02-19T15:44:56.229Z,3.53
2023-02-19T15:48:09.301Z,3.65
2023-02-19T15:51:21.531Z,3.63
2023-02-19T15:54:34.322Z,4.10
2023-02-19T15:57:44.907Z,4.20
2023-02-19T16:01:03.964Z,4.25
2023-02-19T16:04:16.540Z,3.92
2023-02-19T16:07:28.616Z,3.88
2023-02-19T16:10:36.423Z,4.27
2023-02-19T16:13:40.411Z,4.03
2023-02-19T16:16:47.905Z,4.10
2023-02-19T16:20:02.997Z,4.40
2023-02-19T16:23:15.641Z,4.20
2023-02-19T16:26:19.442Z,4.40
2023-02-19T16:29:30.342Z,4.43
2023-02-19T16:32:34.874Z,4.22
2023-02-19T16:35:41.302Z,4.05
2023-02-19T16:39:20.153Z,4.00
2023-02-19T16:42:26.054Z,4.40
2023-02-19T16:45:29.780Z,4.55
2023-02-19T16:48:35.008Z,4.10
2023-02-19T16:51:39.279Z,4.30
2023-02-19T16:54:44.090Z,5.70
2023-02-19T16:57:48.927Z,5.50
2023-02-19T17:00:58.396Z,4.47
2023-02-19T17:04:08.887Z,4.53
2023-02-19T17:07:18.216Z,4.95
2023-02-19T17:10:25.403Z,4.63
2023-02-19T17:13:31.006Z,5.00
2023-02-19T17:16:40.542Z,4.82
2023-02-19T17:19:45.356Z,5.32
2023-02-19T17:22:49.562Z,4.45
2023-02-19T17:25:54.494Z,5.15
2023-02-19T17:29:04.663Z,5.50
2023-02-19T17:32:09.667Z,5.57
2023-02-19T17:35:14.655Z,4.90
2023-02-19T17:38:19.042Z,5.40
2023-02-19T17:41:23.957Z,5.10
2023-02-19T17:44:28.865Z,5.20
2023-02-19T17:47:33.300Z,4.80
2023-02-19T17:50:39.747Z,5.63
2023-02-19T17:53:48.326Z,5.07
2023-02-19T17:56:52.747Z,5.90
2023-02-19T17:59:57.704Z,4.97
2023-02-19T18:03:03.468Z,4.50
2023-02-19T18:06:08.537Z,4.75
2023-02-19T18:09:15.921Z,4.43
2023-02-19T18:12:25.672Z,5.68
2023-02-19T18:15:32.397Z,5.40
2023-02-19T18:18:41.650Z,4.88
2023-02-19T18:21:46.246Z,4.88
2023-02-19T18:24:55.920Z,5.25
2023-02-19T18:28:00.583Z,4.55
2023-02-19T18:31:05.884Z,5.10
2023-02-19T18:34:18.134Z,5.10
2023-02-19T18:37:24.133Z,5.00
2023-02-19T18:40:30.300Z,5.03
2023-02-19T18:43:43.154Z,5.22
2023-02-19T18:46:47.725Z,5.07
2023-02-19T18:49:55.350Z,5.30
2023-02-19T18:53:00.536Z,5.28
2023-02-19T18:56:05.949Z,4.80
2023-02-19T18:59:13.354Z,4.57
2023-02-19T19:02:22.068Z,5.03
2023-02-19T19:05:29.622Z,4.95
2023-02-19T19:08:38.040Z,4.97
2023-02-19T19:11:47.515Z,4.80
2023-02-19T19:14:55.454Z,4.97
2023-02-19T19:18:00.316Z,5.10
2023-02-19T19:21:06.916Z,5.10
2023-02-19T19:24:13.151Z,4.50
2023-02-19T19:27:20.729Z,5.30
2023-02-19T19:30:25.785Z,5.10
2023-02-19T19:33:30.927Z,5.00
2023-02-19T19:36:35.505Z,5.28
2023-02-19T19:39:40.010Z,5.30
2023-02-19T19:42:44.732Z,5.00
2023-02-19T19:45:51.252Z,5.13
2023-02-19T19:48:57.642Z,5.50
2023-02-19T19:52:06.453Z,5.35
2023-02-19T19:55:11.635Z,4.68
2023-02-19T19:58:18.028Z,5.00
2023-02-19T20:01:23.971Z,5.13
2023-02-19T20:04:29.828Z,4.90
2023-02-19T20:07:39.246Z,4.60
2023-02-19T20:10:49.801Z,5.10
2023-02-19T20:13:53.997Z,4.78
2023-02-19T20:17:04.410Z,5.05
2023-02-19T20:20:10.036Z,4.70
2023-02-19T20:23:14.548Z,4.95
2023-02-19T20:26:25.164Z,4.68
2023-02-19T20:29:32.066Z,4.82
2023-02-19T20:32:36.605Z,4.50
2023-02-19T20:35:40.914Z,4.77
2023-02-19T20:38:45.064Z,4.80
2023-02-19T20:41:51.049Z,4.68
2023-02-19T20:44:56.985Z,4.47
2023-02-19T20:48:02.410Z,4.47
2023-02-19T20:51:07.083Z,4.50
2023-02-19T20:54:11.604Z,4.88
2023-02-19T20:57:16.827Z,4.75
2023-02-19T21:00:34.227Z,4.53
2023-02-19T21:03:40.519Z,4.43
2023-02-19T21:06:44.477Z,4.70
2023-02-19T21:09:51.263Z,5.05
2023-02-19T21:12:58.462Z,4.45
2023-02-19T21:16:04.003Z,4.57
2023-02-19T21:19:09.663Z,4.70
2023-02-19T21:22:16.942Z,4.60
2023-02-19T21:25:20.497Z,4.60
2023-02-19T21:28:25.038Z,4.78
2023-02-19T21:31:40.886Z,4.32
2023-02-19T21:34:44.573Z,4.65
2023-02-19T21:37:52.007Z,4.13
2023-02-19T21:41:04.795Z,4.85
2023-02-19T21:44:09.352Z,4.28
2023-02-19T21:47:13.191Z,3.85
2023-02-19T21:50:16.560Z,4.38
2023-02-19T21:53:21.168Z,4.00
2023-02-19T21:56:26.654Z,4.50
2023-02-19T21:59:30.104Z,4.47
2023-02-19T22:02:33.962Z,4.40
2023-02-19T22:05:39.734Z,4.43
2023-02-19T22:08:43.472Z,4.03
2023-02-19T22:11:46.376Z,3.97
2023-02-19T22:14:49.249Z,4.10
2023-02-19T22:17:52.157Z,3.97
2023-02-19T22:20:54.996Z,3.95
2023-02-19T22:23:59.181Z,3.83
2023-02-19T22:27:02.317Z,4.18
2023-02-19T22:30:05.994Z,4.10
2023-02-19T22:33:10.308Z,4.20
2023-02-19T22:36:22.159Z,4.45
2023-02-19T22:39:26.953Z,4.50
2023-02-19T22:42:29.849Z,3.95
2023-02-19T22:45:32.837Z,3.90
2023-02-19T22:48:35.681Z,4.43
2023-02-19T22:51:38.768Z,4.60
2023-02-19T22:54:41.784Z,3.97
2023-02-19T22:57:44.570Z,3.97
2023-02-19T23:00:47.717Z,4.25
2023-02-19T23:03:56.390Z,4.05
2023-02-19T23:07:04.432Z,4.10
2023-02-19T23:10:09.389Z,3.90
2023-02-19T23:13:12.601Z,3.95
2023-02-19T23:16:15.968Z,4.20
2023-02-19T23:19:18.917Z,4.00
2023-02-19T23:22:22.291Z,4.20
2023-02-19T23:25:25.089Z,3.83
2023-02-19T23:28:27.876Z,3.90
2023-02-19T23:31:30.795Z,4.05
2023-02-19T23:34:33.728Z,3.38
2023-02-19T23:37:36.684Z,4.22
2023-02-19T23:40:41.302Z,3.60
2023-02-19T23:43:44.819Z,3.75
2023-02-19T23:46:47.998Z,3.80
2023-02-19T23:49:51.013Z,3.50
2023-02-19T23:52:56.563Z,3.58
2023-02-19T23:55:59.873Z,3.73
2023-02-19T23:59:02.667Z,3.22
